Time;durP1;ratioP1;P1;durP2;ratioP2;P2;SDS_P1;SDS_P2;PMS_P1;PMS_P2;Temp;Humidity;BMP_temperature;BMP_pressure;BME280_temperature;BME280_humidity;BME280_pressure;Samples;Min_cycle;Max_cycle;Signal;HPM_P1;HPM_P2
2022/01/12 00:00:29;;;;;;;57.22;21.92;;;;;;;1.86;100.00;103448.84;5052055;28;20045;-83
2022/01/12 00:06:16;;;;;;;48.97;21.05;;;;;;;1.90;100.00;103446.84;5052998;28;20397;-83
2022/01/12 00:12:04;;;;;;;52.97;20.08;;;;;;;1.96;100.00;103460.53;5052168;28;20116;-82
2022/01/12 00:17:51;;;;;;;55.92;21.98;;;;;;;2.02;100.00;103467.22;5053757;28;20452;-82
2022/01/12 00:23:40;;;;;;;54.55;20.83;;;;;;;1.98;100.00;103468.34;5053178;28;20090;-82
2022/01/12 00:34:54;;;;;;;49.78;22.10;;;;;;;1.98;100.00;103479.75;5052497;28;20048;-84
2022/01/12 00:37:20;;;;;;;58.38;23.08;;;;;;;2.04;100.00;103489.09;5033926;28;20504;-84
2022/01/12 00:43:07;;;;;;;55.88;22.10;;;;;;;2.02;100.00;103486.53;5052199;28;20098;-82
2022/01/12 00:48:56;;;;;;;64.70;22.23;;;;;;;1.96;100.00;103505.38;5052463;28;20043;-81
2022/01/12 00:54:43;;;;;;;58.60;24.35;;;;;;;1.83;100.00;103509.69;5051904;28;20044;-81
2022/01/12 01:00:31;;;;;;;59.00;22.55;;;;;;;1.61;100.00;103511.88;5052315;28;20380;-81
2022/01/12 01:02:57;;;;;;;68.57;24.02;;;;;;;1.57;100.00;103510.38;5033416;28;20060;-81
2022/01/12 01:08:45;;;;;;;69.05;26.38;;;;;;;1.45;100.00;103518.06;5051913;28;20044;-80
2022/01/12 01:26:44;;;;;;;93.75;33.15;;;;;;;1.03;100.00;103507.31;5051390;28;20428;-80
2022/01/12 01:32:31;;;;;;;94.95;29.65;;;;;;;0.90;100.00;103500.09;5051831;28;20543;-81
2022/01/12 01:38:17;;;;;;;86.85;30.70;;;;;;;0.97;100.00;103511.16;5051636;28;20055;-79
2022/01/12 01:40:43;;;;;;;91.13;34.28;;;;;;;0.97;100.00;103520.84;5050258;28;20045;-80
2022/01/12 01:58:42;;;;;;;107.57;34.17;;;;;;;0.86;100.00;103495.91;5050998;28;20052;-79
2022/01/12 02:04:29;;;;;;;103.88;35.78;;;;;;;0.90;100.00;103492.19;5050656;28;20123;-79
2022/01/12 02:10:16;;;;;;;82.32;31.83;;;;;;;0.94;100.00;103495.50;5051060;28;20516;-79
2022/01/12 02:16:03;;;;;;;92.57;33.92;;;;;;;0.91;100.00;103496.53;5050923;28;20035;-78
2022/01/12 02:36:59;;;;;;;99.20;33.17;;;;;;;0.93;100.00;103528.91;5053430;28;20040;-81
2022/01/12 02:43:00;;;;;;;75.57;28.48;;;;;;;1.08;100.00;103539.50;5054431;28;20044;-81
2022/01/12 02:54:53;;;;;;;92.13;35.22;;;;;;;1.09;100.00;103541.22;5053923;28;20068;-82
2022/01/12 02:57:20;;;;;;;80.53;28.50;;;;;;;1.17;100.00;103554.81;5053831;28;20044;-82
2022/01/12 03:00:03;;;;;;;94.00;34.13;;;;;;;1.12;100.00;103557.69;5053853;28;20112;-81
2022/01/12 03:05:59;;;;;;;78.72;28.30;;;;;;;1.09;100.00;103557.00;5054158;28;20516;-82
2022/01/12 03:08:26;;;;;;;82.35;29.60;;;;;;;1.10;100.00;103578.00;5052919;28;20032;-80
2022/01/12 03:14:13;;;;;;;73.75;28.52;;;;;;;1.23;100.00;103583.47;5053974;28;20039;-80
2022/01/12 03:16:41;;;;;;;76.55;28.88;;;;;;;1.23;100.00;103591.38;5035527;28;20112;-79
2022/01/12 03:19:06;;;;;;;74.45;30.58;;;;;;;1.17;100.00;103576.75;5052501;28;20052;-79
2022/01/12 03:21:33;;;;;;;82.57;30.63;;;;;;;1.22;100.00;103590.53;5035668;28;20389;-78
2022/01/12 03:23:59;;;;;;;80.10;30.33;;;;;;;1.21;100.00;103591.47;5053282;28;20033;-78
2022/01/12 03:26:28;;;;;;;86.30;29.42;;;;;;;1.29;100.00;103598.94;5052607;28;20037;-80
2022/01/12 03:32:18;;;;;;;79.85;30.90;;;;;;;1.29;100.00;103585.75;5053834;28;20124;-80
2022/01/12 03:34:53;;;;;;;78.20;29.98;;;;;;;1.30;100.00;103586.59;5052996;28;20025;-81
2022/01/12 03:37:42;;;;;;;72.68;26.80;;;;;;;1.31;100.00;103586.50;5051436;28;20469;-78
2022/01/12 03:40:05;;;;;;;84.40;30.80;;;;;;;1.28;100.00;103578.78;5037529;28;20033;-79
2022/01/12 03:42:31;;;;;;;83.50;31.70;;;;;;;1.26;100.00;103585.94;5051834;28;20532;-80
2022/01/12 03:44:56;;;;;;;83.68;30.85;;;;;;;1.23;100.00;103579.03;5052982;28;20029;-79
2022/01/12 03:50:43;;;;;;;81.53;31.40;;;;;;;1.21;100.00;103587.97;5053185;28;20036;-80
2022/01/12 03:56:30;;;;;;;85.43;31.05;;;;;;;1.26;100.00;103593.84;5052855;28;20090;-80
2022/01/12 03:58:55;;;;;;;84.43;33.65;;;;;;;1.30;100.00;103611.19;5034799;28;20037;-81
2022/01/12 04:01:21;;;;;;;82.75;31.35;;;;;;;1.25;100.00;103613.22;5051910;28;20095;-79
2022/01/12 04:03:57;;;;;;;96.45;33.63;;;;;;;1.31;100.00;103610.22;5034602;28;20119;-80
2022/01/12 04:09:07;;;;;;;90.55;32.30;;;;;;;1.24;100.00;103598.34;5052635;28;20112;-80
2022/01/12 04:11:32;;;;;;;86.40;35.42;;;;;;;1.29;100.00;103606.00;5051610;28;20116;-80
2022/01/12 04:13:57;;;;;;;96.72;34.20;;;;;;;1.29;100.00;103609.47;5052726;28;20028;-80
2022/01/12 04:19:44;;;;;;;82.28;31.98;;;;;;;1.32;100.00;103611.94;5053158;28;20052;-79
2022/01/12 04:32:03;;;;;;;106.25;36.28;;;;;;;1.30;100.00;103610.31;5052605;28;20044;-80
2022/01/12 04:34:28;;;;;;;96.32;34.53;;;;;;;1.26;100.00;103601.75;5051321;28;20362;-79
2022/01/12 04:40:15;;;;;;;117.72;41.40;;;;;;;1.12;100.00;103609.53;5051600;28;20085;-80
2022/01/12 04:42:41;;;;;;;94.70;32.50;;;;;;;1.11;100.00;103597.31;5034386;28;20469;-80
2022/01/12 04:45:36;;;;;;;109.18;39.85;;;;;;;1.12;100.00;103601.63;5052252;28;20029;-78
2022/01/12 04:48:19;;;;;;;115.70;40.72;;;;;;;1.13;100.00;103600.69;5051170;28;20191;-79
2022/01/12 04:50:46;;;;;;;99.45;36.90;;;;;;;1.10;100.00;103603.50;5034217;28;20029;-79
2022/01/12 04:53:14;;;;;;;102.35;35.72;;;;;;;1.10;100.00;103604.34;5050137;28;20044;-79
2022/01/12 04:55:40;;;;;;;103.13;37.55;;;;;;;1.11;100.00;103598.16;5034020;28;20115;-79
2022/01/12 04:58:06;;;;;;;122.63;42.10;;;;;;;1.08;100.00;103597.47;5051166;28;20111;-80
2022/01/12 05:00:33;;;;;;;109.75;38.55;;;;;;;1.12;100.00;103596.38;5051965;28;20029;-78
2022/01/12 05:15:06;;;;;;;103.70;36.28;;;;;;;1.17;100.00;103586.44;5050959;28;20060;-79
2022/01/12 05:17:31;;;;;;;107.68;37.40;;;;;;;1.24;100.00;103598.34;5050483;28;20028;-79
2022/01/12 05:19:57;;;;;;;120.95;42.90;;;;;;;1.18;100.00;103594.25;5033600;28;20064;-79
2022/01/12 05:25:46;;;;;;;108.25;37.47;;;;;;;1.24;100.00;103600.97;5051863;28;20102;-79
2022/01/12 05:31:33;;;;;;;106.30;35.03;;;;;;;1.29;100.00;103600.72;5052074;28;20114;-80
2022/01/12 05:34:00;;;;;;;120.47;39.03;;;;;;;1.30;100.00;103619.09;5036758;28;20485;-80
2022/01/12 05:36:26;;;;;;;90.38;31.13;;;;;;;1.27;100.00;103616.63;5033355;28;20116;-78
2022/01/12 05:38:51;;;;;;;110.88;36.72;;;;;;;1.24;100.00;103614.16;5050434;28;20550;-78
2022/01/12 05:41:17;;;;;;;116.05;39.25;;;;;;;1.32;100.00;103633.03;5051292;28;20036;-79
2022/01/12 05:43:45;;;;;;;103.28;35.70;;;;;;;1.34;100.00;103623.25;5051365;28;20029;-78
2022/01/12 05:46:13;;;;;;;109.13;36.22;;;;;;;1.32;100.00;103609.31;5043285;28;20059;-79
2022/01/12 05:51:23;;;;;;;114.18;36.95;;;;;;;1.41;100.00;103624.59;5050559;28;20040;-80
2022/01/12 05:53:49;;;;;;;104.82;36.40;;;;;;;1.45;100.00;103618.25;5051227;28;20025;-80
2022/01/12 05:56:14;;;;;;;114.53;38.22;;;;;;;1.41;100.00;103621.09;5050167;28;20638;-80
2022/01/12 05:58:40;;;;;;;106.80;34.67;;;;;;;1.38;100.00;103618.66;5051195;28;20363;-79
2022/01/12 06:01:05;;;;;;;109.55;38.58;;;;;;;1.33;100.00;103621.53;5033202;28;20029;-79
2022/01/12 06:06:52;;;;;;;115.05;37.70;;;;;;;1.35;100.00;103622.31;5054405;28;20032;-80
2022/01/12 06:09:19;;;;;;;109.15;38.63;;;;;;;1.34;100.00;103617.97;5053722;28;20481;-79
2022/01/12 06:11:44;;;;;;;94.93;34.20;;;;;;;1.40;100.00;103624.69;5054522;28;20024;-78
2022/01/12 06:17:31;;;;;;;104.43;35.67;;;;;;;1.34;100.00;103636.41;5054697;28;20044;-80
2022/01/12 06:19:57;;;;;;;108.55;38.15;;;;;;;1.33;100.00;103632.09;5053592;28;20052;-80
2022/01/12 06:22:24;;;;;;;115.63;35.47;;;;;;;1.36;100.00;103646.88;5036391;28;20058;-79
2022/01/12 06:24:50;;;;;;;118.03;36.58;;;;;;;1.37;100.00;103645.94;5054163;28;20040;-78
2022/01/12 06:27:17;;;;;;;114.38;36.75;;;;;;;1.37;100.00;103657.34;5053463;28;20041;-78
2022/01/12 06:33:04;;;;;;;103.15;35.30;;;;;;;1.41;100.00;103669.41;5054396;28;20128;-78
2022/01/12 06:38:50;;;;;;;116.38;37.85;;;;;;;1.41;100.00;103672.03;5054027;28;20507;-79
2022/01/12 06:44:37;;;;;;;117.07;35.53;;;;;;;1.41;100.00;103685.22;5054053;28;20166;-79
2022/01/12 06:50:25;;;;;;;114.55;36.17;;;;;;;1.46;100.00;103698.19;5055347;28;20052;-79
2022/01/12 06:56:15;;;;;;;105.65;36.10;;;;;;;1.44;100.00;103684.19;5053639;28;20060;-78
2022/01/12 07:02:03;;;;;;;114.50;39.25;;;;;;;1.50;100.00;103697.91;5053923;28;20075;-77
2022/01/12 07:07:51;;;;;;;108.15;33.47;;;;;;;1.46;100.00;103696.41;5053241;28;20044;-78
2022/01/12 07:13:38;;;;;;;119.18;36.47;;;;;;;1.58;100.00;103723.88;5053813;28;20055;-78
2022/01/12 07:19:25;;;;;;;97.75;34.63;;;;;;;1.53;100.00;103703.03;5053488;28;20048;-77
2022/01/12 07:25:12;;;;;;;118.97;36.15;;;;;;;1.62;100.00;103704.28;5053529;28;20039;-76
2022/01/12 07:31:00;;;;;;;117.93;36.88;;;;;;;1.65;100.00;103721.72;5053568;28;20052;-75
2022/01/12 07:33:25;;;;;;;100.50;35.10;;;;;;;1.58;100.00;103728.28;5052373;28;20033;-77
2022/01/12 07:39:12;;;;;;;108.78;35.05;;;;;;;1.64;100.00;103741.13;5053342;28;20083;-78
2022/01/12 07:45:01;;;;;;;114.90;35.15;;;;;;;1.63;100.00;103756.09;5053343;28;20140;-78
2022/01/12 07:50:48;;;;;;;105.47;33.40;;;;;;;1.68;100.00;103759.34;5049607;28;20044;-77
2022/01/12 07:56:35;;;;;;;108.18;35.08;;;;;;;1.69;100.00;103773.38;5052766;28;20055;-77
2022/01/12 08:05:53;;;;;;;128.38;38.30;;;;;;;1.76;100.00;103788.81;5052827;28;20400;-76
2022/01/12 08:11:40;;;;;;;132.43;37.20;;;;;;;1.83;100.00;103811.25;5052586;28;20128;-77
2022/01/12 08:14:05;;;;;;;142.43;42.05;;;;;;;1.81;100.00;103801.72;5034062;28;20096;-76
2022/01/12 08:19:55;;;;;;;129.45;38.05;;;;;;;1.89;100.00;103818.00;5052150;28;20372;-77
2022/01/12 08:25:42;;;;;;;150.98;40.53;;;;;;;1.85;100.00;103811.19;5052523;28;20048;-77
2022/01/12 08:31:30;;;;;;;132.68;40.97;;;;;;;1.79;100.00;103795.69;5052692;28;20059;-77
2022/01/12 08:37:17;;;;;;;139.15;35.95;;;;;;;1.93;100.00;103811.59;5052327;28;20095;-78
2022/01/12 08:43:04;;;;;;;144.68;40.08;;;;;;;2.06;100.00;103811.78;5052600;28;20114;-76
2022/01/12 08:48:51;;;;;;;153.48;39.05;;;;;;;2.12;100.00;103817.59;5052350;28;20102;-77
2022/01/12 08:54:39;;;;;;;190.27;39.63;;;;;;;2.07;100.00;103813.50;5052217;28;20048;-77
2022/01/12 09:00:45;;;;;;;137.10;40.08;;;;;;;2.24;100.00;103825.75;5052306;28;20055;-77
2022/01/12 09:06:32;;;;;;;138.82;37.05;;;;;;;2.37;100.00;103834.69;5052260;28;20487;-76
2022/01/12 09:12:19;;;;;;;122.18;31.40;;;;;;;2.49;100.00;103855.97;5052293;28;20043;-78
2022/01/12 09:18:06;;;;;;;131.13;32.58;;;;;;;2.59;100.00;103864.19;5051919;28;20554;-78
2022/01/12 09:23:53;;;;;;;203.38;38.97;;;;;;;2.68;100.00;103865.50;5051817;28;20039;-77
2022/01/12 09:29:42;;;;;;;205.85;34.95;;;;;;;2.72;100.00;103874.94;5051754;28;20095;-76
2022/01/12 09:35:29;;;;;;;131.85;32.22;;;;;;;2.74;100.00;103883.63;5051684;28;20369;-76
2022/01/12 09:41:17;;;;;;;171.52;29.13;;;;;;;2.70;100.00;103885.59;5054400;28;20110;-76
2022/01/12 09:47:06;;;;;;;104.47;24.02;;;;;;;2.72;100.00;103883.72;5055152;28;20182;-76
2022/01/12 09:56:24;;;;;;;151.63;26.48;;;;;;;2.89;100.00;103913.59;5054827;28;20120;-77
2022/01/12 10:02:19;;;;;;;119.47;24.65;;;;;;;2.88;100.00;103907.47;5055256;28;20044;-77
2022/01/12 10:08:13;;;;;;;170.30;27.02;;;;;;;2.79;100.00;103916.78;5055280;28;20052;-77
2022/01/12 10:14:02;;;;;;;178.48;23.92;;;;;;;2.83;100.00;103937.72;5055133;28;20587;-77
2022/01/12 10:19:49;;;;;;;204.48;25.10;;;;;;;2.76;100.00;103924.03;5055144;28;20499;-77
2022/01/12 10:25:37;;;;;;;109.32;25.50;;;;;;;2.79;100.00;103919.41;5054747;28;20091;-77
2022/01/12 10:31:24;;;;;;;91.78;23.08;;;;;;;2.87;100.00;103902.25;5054713;28;20136;-79
2022/01/12 10:37:13;;;;;;;74.70;23.15;;;;;;;3.11;100.00;103901.69;5054636;28;20155;-78
2022/01/12 10:43:00;;;;;;;86.18;24.33;;;;;;;2.97;100.00;103911.38;5054303;28;20067;-77
2022/01/12 10:48:49;;;;;;;70.70;19.30;;;;;;;3.07;100.00;103918.69;5054270;28;20059;-77
2022/01/12 10:54:48;;;;;;;88.13;25.27;;;;;;;3.17;100.00;103921.63;5053817;28;20044;-77
2022/01/12 11:00:47;;;;;;;85.50;24.27;;;;;;;3.23;100.00;103918.66;5054061;28;20071;-77
2022/01/12 11:06:34;;;;;;;91.35;24.90;;;;;;;3.24;100.00;103923.00;5053025;28;20606;-77
2022/01/12 11:12:21;;;;;;;77.22;21.38;;;;;;;3.27;100.00;103909.59;5053880;28;20078;-77
2022/01/12 11:18:10;;;;;;;94.28;26.02;;;;;;;3.29;100.00;103920.94;5053955;28;20059;-76
2022/01/12 11:24:17;;;;;;;97.82;26.55;;;;;;;3.24;100.00;103925.66;5053534;28;20040;-75
2022/01/12 11:30:05;;;;;;;96.30;27.88;;;;;;;3.23;100.00;103938.97;5053564;28;20393;-75
2022/01/12 11:36:34;;;;;;;87.50;23.95;;;;;;;3.35;100.00;103939.06;5053924;28;20499;-75
2022/01/12 11:42:53;;;;;;;89.07;26.38;;;;;;;3.37;100.00;103928.41;5054267;28;20083;-79
2022/01/12 12:02:51;;;;;;;80.93;24.65;;;;;;;3.52;100.00;103926.66;5052756;28;20072;-78
2022/01/12 12:15:37;;;;;;;88.03;24.83;;;;;;;3.49;100.00;103927.69;5052166;28;20035;-77
2022/01/12 12:25:42;;;;;;;75.80;22.33;;;;;;;3.53;100.00;103923.06;5052375;28;20488;-78
2022/01/12 12:31:30;;;;;;;83.93;24.00;;;;;;;3.66;100.00;103924.03;5052309;28;20135;-79
2022/01/12 12:37:17;;;;;;;88.43;22.73;;;;;;;3.77;100.00;103921.59;5052508;28;20056;-78
2022/01/12 12:43:06;;;;;;;87.28;22.65;;;;;;;3.78;100.00;103920.66;5052226;28;20508;-77
2022/01/12 12:45:44;;;;;;;79.78;24.65;;;;;;;3.68;100.00;103898.31;5051259;28;20052;-74
2022/01/12 12:51:30;;;;;;;82.93;26.05;;;;;;;3.26;100.00;103899.13;5052297;28;20051;-77
2022/01/12 12:57:21;;;;;;;80.43;22.45;;;;;;;3.29;100.00;103894.50;5052095;28;20111;-77
2022/01/12 13:03:07;;;;;;;82.07;25.50;;;;;;;3.49;100.00;103876.59;5051801;28;20055;-78
2022/01/12 13:08:56;;;;;;;87.82;25.58;;;;;;;3.53;100.00;103886.03;5051915;28;20180;-79
2022/01/12 13:14:46;;;;;;;78.60;23.83;;;;;;;3.67;100.00;103893.97;5050843;28;20857;-78
2022/01/12 13:30:06;;;;;;;77.45;22.00;;;;;;;3.29;100.00;103907.72;5051214;28;20076;-78
2022/01/12 13:35:53;;;;;;;76.50;24.30;;;;;;;3.39;100.00;103908.84;5051598;28;20052;-77
2022/01/12 13:41:42;;;;;;;81.55;24.02;;;;;;;3.48;100.00;103912.78;5051741;28;20067;-78
2022/01/12 13:47:34;;;;;;;80.35;24.95;;;;;;;3.47;100.00;103905.78;5051520;28;20397;-78
2022/01/12 13:54:01;;;;;;;76.45;24.75;;;;;;;3.64;100.00;103920.63;5051704;28;20094;-78
2022/01/12 13:56:37;;;;;;;77.72;24.08;;;;;;;3.66;100.00;103922.22;5040817;28;20045;-78
2022/01/12 14:02:25;;;;;;;67.88;23.73;;;;;;;3.61;100.00;103902.28;5050618;28;20143;-78
2022/01/12 14:08:15;;;;;;;143.98;49.80;;;;;;;3.63;100.00;103893.31;5051220;28;20047;-78
2022/01/12 14:14:03;;;;;;;81.88;23.08;;;;;;;3.82;100.00;103914.22;5051276;28;20155;-78
2022/01/12 14:19:58;;;;;;;71.82;23.85;;;;;;;3.71;100.00;103919.28;5051180;28;20052;-78
2022/01/12 14:25:51;;;;;;;75.00;23.15;;;;;;;3.49;100.00;103938.28;5052881;28;20059;-78
2022/01/12 14:31:39;;;;;;;82.75;27.10;;;;;;;3.53;100.00;103934.50;5054541;28;20052;-78
2022/01/12 14:37:26;;;;;;;69.50;23.08;;;;;;;3.63;100.00;103929.50;5054338;28;20139;-79
2022/01/12 14:43:13;;;;;;;76.07;22.38;;;;;;;3.71;100.00;103932.53;5054294;28;20506;-79
2022/01/12 14:49:00;;;;;;;89.07;27.45;;;;;;;3.66;100.00;103929.31;5054137;28;20393;-78
2022/01/12 14:54:47;;;;;;;67.95;23.55;;;;;;;3.53;100.00;103915.13;5054210;28;20040;-78
2022/01/12 15:00:35;;;;;;;84.07;24.38;;;;;;;3.48;100.00;103925.16;5053809;28;20063;-79
2022/01/12 15:06:21;;;;;;;75.53;24.30;;;;;;;3.47;100.00;103920.78;5053847;28;20075;-78
2022/01/12 15:12:14;;;;;;;80.85;24.85;;;;;;;3.40;100.00;103917.66;5053822;28;20139;-77
2022/01/12 15:20:28;;;;;;;88.93;23.42;;;;;;;3.36;100.00;103916.13;5053503;28;20040;-78
2022/01/12 15:26:15;;;;;;;89.82;25.83;;;;;;;3.26;100.00;103901.75;5053441;28;20059;-78
2022/01/12 15:32:03;;;;;;;84.65;25.50;;;;;;;3.26;100.00;103907.91;5053476;28;20056;-77
2022/01/12 15:37:50;;;;;;;76.70;24.48;;;;;;;3.21;100.00;103912.59;5052783;28;20040;-81
2022/01/12 15:43:37;;;;;;;86.00;24.42;;;;;;;3.01;100.00;103924.31;5053624;28;20066;-78
2022/01/12 15:49:24;;;;;;;90.03;24.90;;;;;;;2.87;100.00;103933.97;5053331;28;20075;-79
2022/01/12 15:55:11;;;;;;;79.75;22.90;;;;;;;2.78;100.00;103936.22;5053263;28;20071;-78
2022/01/12 16:00:58;;;;;;;79.60;23.05;;;;;;;2.78;100.00;103938.84;5053039;28;20048;-79
2022/01/12 16:06:45;;;;;;;100.32;39.92;;;;;;;2.77;100.00;103939.78;5053390;28;20052;-79
2022/01/12 16:12:32;;;;;;;88.85;25.10;;;;;;;2.79;100.00;103943.19;5051827;28;20605;-79
2022/01/12 16:18:19;;;;;;;104.20;26.23;;;;;;;2.67;100.00;103946.53;5052861;28;20156;-80
2022/01/12 16:24:07;;;;;;;91.13;26.00;;;;;;;2.64;100.00;103951.13;5052764;28;20102;-79
2022/01/12 16:29:54;;;;;;;103.97;30.67;;;;;;;2.41;100.00;103955.03;5053745;28;20790;-82
2022/01/12 16:32:20;;;;;;;94.75;26.45;;;;;;;2.47;100.00;103970.53;5052006;28;20045;-82
2022/01/12 16:38:14;;;;;;;86.55;26.05;;;;;;;2.42;100.00;103956.75;5053622;28;20118;-82
2022/01/12 16:44:03;;;;;;;93.32;27.25;;;;;;;2.51;100.00;103964.16;5052431;28;20493;-80
2022/01/12 16:49:51;;;;;;;96.05;27.20;;;;;;;2.63;100.00;103968.78;5051017;28;20044;-79
2022/01/12 16:55:40;;;;;;;99.65;26.58;;;;;;;2.68;100.00;103976.44;5052820;28;20048;-80
2022/01/12 17:01:27;;;;;;;103.82;28.92;;;;;;;2.62;100.00;103966.22;5052933;28;20117;-80
2022/01/12 17:07:15;;;;;;;98.25;28.05;;;;;;;2.74;100.00;103976.94;5052323;28;20079;-81
2022/01/12 17:13:02;;;;;;;97.10;27.33;;;;;;;2.82;100.00;103988.88;5051762;28;20051;-80
2022/01/12 17:19:00;;;;;;;120.05;30.40;;;;;;;2.60;100.00;103984.81;5051979;28;20074;-78
2022/01/12 17:25:09;;;;;;;108.68;28.48;;;;;;;2.75;100.00;104014.78;5052086;28;20136;-77
2022/01/12 17:30:58;;;;;;;95.88;27.65;;;;;;;2.75;100.00;103994.50;5051354;28;20175;-78
2022/01/12 17:36:48;;;;;;;101.65;30.35;;;;;;;2.65;100.00;104003.88;5051510;28;20052;-78
2022/01/12 17:42:37;;;;;;;101.70;27.15;;;;;;;2.55;100.00;103997.38;5051550;28;20082;-79
2022/01/12 17:48:28;;;;;;;113.80;33.67;;;;;;;2.42;100.00;104006.91;5051498;28;20059;-78
2022/01/12 17:54:21;;;;;;;92.05;27.42;;;;;;;2.31;100.00;103988.13;5051759;28;20048;-78
2022/01/12 18:00:22;;;;;;;111.30;30.15;;;;;;;2.29;100.00;103990.00;5052443;28;20055;-79
2022/01/12 18:06:09;;;;;;;117.60;31.70;;;;;;;2.31;100.00;103980.22;5054845;28;20051;-78
2022/01/12 18:11:56;;;;;;;99.40;29.23;;;;;;;2.37;100.00;104001.03;5054994;28;20093;-78
2022/01/12 18:17:47;;;;;;;114.40;29.33;;;;;;;2.43;100.00;104013.91;5054762;28;20532;-79
2022/01/12 18:23:35;;;;;;;105.78;31.45;;;;;;;2.41;100.00;104018.41;5054844;28;20044;-79
2022/01/12 18:29:22;;;;;;;113.70;32.17;;;;;;;2.55;100.00;104028.22;5054206;28;20043;-78
2022/01/12 18:35:09;;;;;;;84.20;27.92;;;;;;;2.39;100.00;104009.72;5054501;28;20051;-79
2022/01/12 18:40:56;;;;;;;105.53;28.75;;;;;;;2.50;100.00;104025.84;5054274;28;20055;-78
2022/01/12 18:46:44;;;;;;;102.72;31.23;;;;;;;2.37;100.00;104024.81;5054057;28;20076;-78
2022/01/12 18:52:31;;;;;;;107.78;31.05;;;;;;;2.31;100.00;104023.31;5053140;28;20083;-78
2022/01/12 18:58:18;;;;;;;113.95;32.17;;;;;;;2.28;100.00;104014.69;5054489;28;20071;-77
2022/01/12 19:04:07;;;;;;;129.82;31.50;;;;;;;2.20;100.00;104032.75;5055223;28;20058;-80
2022/01/12 19:09:54;;;;;;;112.72;30.88;;;;;;;2.17;100.00;104029.34;5053881;28;20103;-80
2022/01/12 19:15:41;;;;;;;123.13;30.55;;;;;;;2.19;100.00;104031.88;5054223;28;20169;-80
2022/01/12 19:21:29;;;;;;;123.10;33.38;;;;;;;2.23;100.00;104049.28;5053801;28;20114;-79
2022/01/12 19:27:17;;;;;;;129.50;33.42;;;;;;;1.95;100.00;104043.72;5053416;28;20052;-79
2022/01/12 19:29:42;;;;;;;125.68;34.22;;;;;;;1.78;100.00;104026.13;5034541;28;20186;-80
2022/01/12 19:35:29;;;;;;;143.18;37.20;;;;;;;1.75;100.00;104048.22;5052447;28;20079;-80
2022/01/12 19:37:55;;;;;;;152.10;40.60;;;;;;;1.51;100.00;104031.84;5035309;28;20040;-80
2022/01/12 19:43:44;;;;;;;127.20;32.65;;;;;;;1.60;100.00;104058.69;5053105;28;20087;-79
2022/01/12 19:49:32;;;;;;;157.88;41.70;;;;;;;1.55;100.00;104053.63;5053426;28;20446;-79
2022/01/12 19:56:02;;;;;;;124.15;32.40;;;;;;;1.69;100.00;104066.13;5053075;28;20126;-81
2022/01/12 20:01:50;;;;;;;127.25;32.50;;;;;;;1.63;100.00;104087.53;5053076;28;20048;-79
2022/01/12 20:07:40;;;;;;;133.05;31.75;;;;;;;1.60;100.00;104092.97;5053051;28;20040;-79
2022/01/12 20:13:27;;;;;;;126.28;30.27;;;;;;;1.75;100.00;104081.66;5052875;28;20055;-78
2022/01/12 20:25:21;;;;;;;133.75;35.80;;;;;;;1.35;100.00;104051.97;5052903;28;20421;-78
2022/01/12 20:31:08;;;;;;;161.75;36.97;;;;;;;1.38;100.00;104072.91;5052531;28;20468;-81
2022/01/12 20:36:56;;;;;;;153.18;37.22;;;;;;;1.31;100.00;104071.50;5052299;28;20048;-79
2022/01/12 20:42:43;;;;;;;137.15;33.55;;;;;;;1.55;100.00;104090.56;5049199;28;20120;-79
2022/01/12 20:48:31;;;;;;;140.80;33.45;;;;;;;1.55;100.00;104094.03;5052324;28;20528;-80
2022/01/12 20:54:19;;;;;;;141.48;34.78;;;;;;;1.62;100.00;104099.00;5052410;28;20047;-79
2022/01/12 21:00:07;;;;;;;129.23;29.48;;;;;;;1.44;100.00;104067.31;5052264;28;20503;-81
2022/01/12 21:05:54;;;;;;;130.18;35.15;;;;;;;1.38;100.00;104062.34;5052295;28;20043;-80
2022/01/12 21:11:48;;;;;;;130.63;30.45;;;;;;;1.44;100.00;104063.84;5052008;28;20048;-81
2022/01/12 21:17:35;;;;;;;134.05;33.45;;;;;;;1.32;100.00;104049.47;5052056;28;20129;-80
2022/01/12 21:20:02;;;;;;;157.90;37.17;;;;;;;1.30;100.00;104056.63;5050520;28;20075;-80
2022/01/12 21:25:48;;;;;;;169.40;36.20;;;;;;;1.16;100.00;104043.25;5051457;28;20052;-79
2022/01/12 21:31:36;;;;;;;158.38;37.05;;;;;;;1.29;100.00;104069.88;5051688;28;20060;-81
2022/01/12 21:37:34;;;;;;;141.30;34.25;;;;;;;1.42;100.00;104092.91;5055720;28;20048;-80
2022/01/12 21:43:21;;;;;;;141.60;34.67;;;;;;;1.40;100.00;104094.78;5054927;28;20052;-81
2022/01/12 21:49:09;;;;;;;239.93;41.65;;;;;;;1.34;100.00;104100.34;5055515;28;20048;-83
2022/01/12 21:55:00;;;;;;;217.32;34.78;;;;;;;0.85;100.00;104076.28;5054736;28;20053;-79
2022/01/12 22:00:47;;;;;;;330.50;45.72;;;;;;;0.77;100.00;104072.28;5054964;28;20226;-79
2022/01/12 22:09:56;;;;;;;196.52;38.58;;;;;;;0.82;100.00;104050.09;5054778;28;20075;-79
2022/01/12 22:15:44;;;;;;;255.93;42.42;;;;;;;0.73;100.00;104057.56;5056105;28;20059;-81
2022/01/12 22:21:31;;;;;;;158.70;30.73;;;;;;;0.67;100.00;104045.53;5056941;28;20063;-81
2022/01/12 22:27:18;;;;;;;296.67;36.60;;;;;;;0.65;100.00;104054.44;5057854;28;20341;-81
2022/01/12 22:33:07;;;;;;;176.90;29.77;;;;;;;0.77;100.00;104044.19;5054000;28;20424;-80
2022/01/12 22:38:54;;;;;;;136.75;31.30;;;;;;;0.88;100.00;104055.09;5055549;28;20148;-79
2022/01/12 22:44:41;;;;;;;116.72;25.98;;;;;;;0.92;100.00;104050.53;5055096;28;20087;-80
2022/01/12 22:50:29;;;;;;;131.75;30.13;;;;;;;0.97;100.00;104047.69;5055053;28;20040;-81
2022/01/12 22:56:22;;;;;;;119.90;27.08;;;;;;;0.93;100.00;104053.09;5054236;28;20036;-78
2022/01/12 23:02:09;;;;;;;146.95;26.42;;;;;;;0.91;100.00;104059.38;5054066;28;20044;-80
2022/01/12 23:07:57;;;;;;;125.57;25.27;;;;;;;0.97;100.00;104064.34;5054026;28;20072;-79
2022/01/12 23:13:45;;;;;;;305.35;32.25;;;;;;;0.88;100.00;104072.69;5054087;28;20056;-80
2022/01/12 23:16:10;;;;;;;132.23;27.50;;;;;;;0.85;100.00;104060.47;5034752;28;20056;-80
2022/01/12 23:21:58;;;;;;;144.23;24.33;;;;;;;0.92;100.00;104059.28;5053801;28;20044;-80
2022/01/12 23:27:47;;;;;;;133.38;25.63;;;;;;;0.86;100.00;104059.56;5054146;28;20123;-79
2022/01/12 23:30:13;;;;;;;289.23;33.97;;;;;;;0.73;100.00;104053.16;5035142;28;20033;-81
2022/01/12 23:32:38;;;;;;;241.52;30.05;;;;;;;0.82;100.00;104065.03;5053504;28;20033;-80
2022/01/12 23:51:00;;;;;;;183.15;30.77;;;;;;;0.99;100.00;104072.16;5053414;28;20079;-79
2022/01/12 23:56:53;;;;;;;101.35;26.65;;;;;;;0.95;100.00;104074.09;5053211;28;20381;-78
